Terminal Aerodrome Forecast
Issued by NWS

Home | Current Version | Previous Version | Text Only | Print | Product List | Glossary On
Versions: 1 2 3 4 5 6 7 8 9 10 11 12 13 14 15 16 17 18 19 20 21
463
FTUS44 KSJT 172322
TAFSOA
TAF
KSOA 172322Z 1800/1824 04004KT P6SM BKN250
     FM180700 VRB03KT P6SM OVC015
     FM180900 16005KT 6SM -DZ OVC006
     FM181900 17011G16KT P6SM BKN015=

USA.gov is the U.S. government's official web portal to all federal, state and local government web resources and services.